Time;durP1;ratioP1;P1;durP2;ratioP2;P2;SDS_P1;SDS_P2;PMS_P1;PMS_P2;Temp;Humidity;BMP_temperature;BMP_pressure;BME280_temperature;BME280_humidity;BME280_pressure;Samples;Min_cycle;Max_cycle;Signal;HPM_P1;HPM_P2
2021/07/07 00:01:34;;;;;;;2.53;2.33;;;;;;;15.26;81.02;99678.84;5041304;28;20135;-48
2021/07/07 00:04:01;;;;;;;1.65;1.08;;;;;;;15.27;80.76;99680.44;5041960;28;20398;-44
2021/07/07 00:06:28;;;;;;;1.73;1.30;;;;;;;15.24;80.94;99684.84;5037305;28;20063;-53
2021/07/07 00:08:58;;;;;;;2.38;1.35;;;;;;;15.24;80.78;99686.81;5019466;28;20834;-41
2021/07/07 00:11:25;;;;;;;1.13;0.85;;;;;;;15.22;80.78;99678.06;5039954;28;20148;-42
2021/07/07 00:13:52;;;;;;;1.15;1.05;;;;;;;15.22;80.48;99690.00;5024906;28;20060;-46
2021/07/07 00:16:19;;;;;;;1.50;0.70;;;;;;;15.20;80.30;99699.97;5037861;28;20143;-47
2021/07/07 00:18:47;;;;;;;1.73;0.50;;;;;;;15.11;80.20;99694.84;5037478;28;20142;-49
2021/07/07 00:21:13;;;;;;;0.80;0.70;;;;;;;15.05;80.16;99692.84;5039615;28;20589;-50
2021/07/07 00:23:40;;;;;;;1.65;0.98;;;;;;;15.06;80.20;99705.59;5040953;28;20060;-53
2021/07/07 00:26:12;;;;;;;0.63;0.63;;;;;;;15.04;80.06;99696.81;5037083;28;20734;-41
2021/07/07 00:28:39;;;;;;;0.77;0.77;;;;;;;15.06;80.00;99702.81;5041756;28;20134;-54
2021/07/07 00:31:05;;;;;;;5.70;1.30;;;;;;;15.06;80.14;99698.00;5037819;28;20107;-44
2021/07/07 00:33:32;;;;;;;2.22;1.20;;;;;;;15.13;79.78;99708.34;5042198;28;20040;-55
2021/07/07 00:35:59;;;;;;;2.03;0.85;;;;;;;15.10;79.70;99709.94;5020523;28;20045;-47
2021/07/07 00:38:26;;;;;;;1.33;1.23;;;;;;;15.10;79.71;99712.75;5040759;28;20397;-44
2021/07/07 00:40:57;;;;;;;1.35;0.98;;;;;;;15.07;79.72;99707.97;5038399;28;20625;-46
2021/07/07 00:43:24;;;;;;;1.60;1.02;;;;;;;15.04;80.07;99716.31;5039837;28;20505;-46
2021/07/07 00:45:51;;;;;;;3.25;0.98;;;;;;;15.03;80.14;99717.53;5044433;28;20409;-44
2021/07/07 00:48:18;;;;;;;2.25;1.85;;;;;;;15.04;80.22;99714.34;5023057;28;20052;-43
2021/07/07 00:50:48;;;;;;;2.65;1.10;;;;;;;15.01;80.25;99712.34;5038243;28;20049;-42
2021/07/07 00:53:18;;;;;;;1.83;1.50;;;;;;;15.03;80.37;99712.75;5039358;28;20044;-46
2021/07/07 00:55:46;;;;;;;3.50;1.45;;;;;;;15.06;80.33;99725.09;5038652;28;20067;-47
2021/07/07 00:58:13;;;;;;;2.65;1.67;;;;;;;15.04;80.04;99721.91;5021553;28;20059;-53
2021/07/07 01:00:40;;;;;;;2.67;2.13;;;;;;;15.00;80.44;99733.06;5035457;28;20092;-45
2021/07/07 01:03:08;;;;;;;2.22;1.52;;;;;;;14.97;80.88;99731.06;5035308;28;20056;-43
2021/07/07 01:05:35;;;;;;;5.65;1.70;;;;;;;14.97;81.08;99735.84;5038585;28;20146;-53
2021/07/07 01:08:02;;;;;;;2.42;1.90;;;;;;;14.97;81.12;99742.22;5049142;28;20571;-49
2021/07/07 01:10:29;;;;;;;2.05;1.75;;;;;;;14.95;80.78;99749.41;5040470;28;20053;-41
2021/07/07 01:12:56;;;;;;;3.70;1.75;;;;;;;14.92;81.10;99747.41;5038701;28;20425;-51
2021/07/07 01:15:23;;;;;;;1.73;1.63;;;;;;;14.88;81.15;99744.59;5037587;28;20179;-47
2021/07/07 01:17:50;;;;;;;1.88;1.50;;;;;;;14.84;81.10;99748.59;5041099;28;20371;-49
2021/07/07 01:20:24;;;;;;;3.17;1.48;;;;;;;14.80;81.11;99745.78;5040672;28;20713;-50
2021/07/07 01:22:54;;;;;;;3.42;1.75;;;;;;;14.76;81.20;99758.13;5038227;28;20059;-51
2021/07/07 01:25:20;;;;;;;2.00;1.65;;;;;;;14.77;81.34;99749.41;5036699;28;20048;-45
2021/07/07 01:27:48;;;;;;;2.97;1.60;;;;;;;14.79;81.44;99746.19;5040713;28;20053;-44
2021/07/07 01:30:19;;;;;;;1.92;1.73;;;;;;;14.75;81.53;99751.75;5036328;28;20052;-47
2021/07/07 01:32:51;;;;;;;3.00;1.73;;;;;;;14.73;81.75;99754.16;5036959;28;20130;-44
2021/07/07 01:35:18;;;;;;;2.10;1.85;;;;;;;14.73;81.54;99762.50;5038219;28;20067;-51
2021/07/07 01:37:47;;;;;;;4.03;2.47;;;;;;;14.71;81.75;99762.13;5038469;28;20084;-47
2021/07/07 01:40:19;;;;;;;2.58;1.38;;;;;;;14.70;81.82;99754.94;5038951;28;20049;-41
2021/07/07 01:42:47;;;;;;;;;;;;;;;14.66;82.08;99762.53;5038407;28;20049;-47
2021/07/07 01:45:14;;;;;;;3.00;1.88;;;;;;;14.66;81.54;99765.31;5037759;28;19928;-49
2021/07/07 01:47:42;;;;;;;2.63;1.75;;;;;;;14.71;81.57;99770.47;5019122;28;20048;-48
2021/07/07 01:50:12;;;;;;;6.20;3.55;;;;;;;14.72;81.17;99758.13;5039169;28;20497;-47
2021/07/07 01:52:41;;;;;;;3.00;2.60;;;;;;;14.67;81.26;99766.88;5035709;28;20071;-42
2021/07/07 01:55:11;;;;;;;2.03;1.25;;;;;;;14.60;81.73;99767.69;5039017;28;20105;-42
2021/07/07 01:57:49;;;;;;;1.42;1.20;;;;;;;14.61;81.69;99765.69;5038890;28;20142;-44
2021/07/07 02:00:21;;;;;;;4.53;1.45;;;;;;;14.64;81.52;99771.25;5037473;28;20048;-43
2021/07/07 02:02:49;;;;;;;2.75;1.40;;;;;;;14.66;81.56;99770.06;5037244;28;21361;-51
2021/07/07 02:05:17;;;;;;;2.97;1.42;;;;;;;14.67;81.41;99772.44;5036713;28;20048;-43
2021/07/07 02:07:47;;;;;;;4.07;1.60;;;;;;;14.67;81.44;99778.03;5036008;28;20132;-51
2021/07/07 02:10:16;;;;;;;4.20;2.05;;;;;;;14.63;81.57;99782.81;4999102;28;20136;-44
2021/07/07 02:12:43;;;;;;;2.42;1.85;;;;;;;14.58;81.63;99786.78;5015215;28;20511;-44
2021/07/07 02:15:21;;;;;;;2.08;1.88;;;;;;;14.59;81.62;99782.78;5014934;28;20573;-51
2021/07/07 02:17:51;;;;;;;1.92;1.58;;;;;;;14.60;81.51;99789.16;5014365;28;20052;-49
2021/07/07 02:20:19;;;;;;;1.80;1.70;;;;;;;14.58;81.66;99795.16;5016392;28;20053;-44
2021/07/07 02:22:47;;;;;;;2.08;1.67;;;;;;;14.56;81.60;99797.50;4997488;28;20057;-51
2021/07/07 02:25:17;;;;;;;3.40;2.28;;;;;;;14.58;81.73;99797.13;5015692;28;20139;-42
2021/07/07 02:27:44;;;;;;;2.03;1.92;;;;;;;14.56;81.74;99805.09;5015089;28;20089;-50
2021/07/07 02:30:14;;;;;;;2.70;2.50;;;;;;;14.54;81.64;99796.31;5015474;28;20902;-51
2021/07/07 02:32:42;;;;;;;2.22;2.00;;;;;;;14.55;81.56;99792.34;5015962;28;20507;-44
2021/07/07 02:35:11;;;;;;;3.45;2.85;;;;;;;14.53;81.67;99800.31;5014461;28;20580;-45
2021/07/07 02:37:41;;;;;;;2.42;1.90;;;;;;;14.42;81.74;99803.06;5014208;28;20059;-47
2021/07/07 02:40:10;;;;;;;2.50;2.05;;;;;;;14.43;81.87;99812.19;5016998;28;20072;-52
2021/07/07 02:42:37;;;;;;;2.85;1.83;;;;;;;14.40;81.66;99802.63;5013761;28;20107;-49
2021/07/07 02:45:06;;;;;;;4.82;1.90;;;;;;;14.42;81.71;99800.28;5013061;28;20061;-46
2021/07/07 02:47:33;;;;;;;2.22;2.03;;;;;;;14.42;81.61;99808.63;5016606;28;20056;-43
2021/07/07 02:50:00;;;;;;;3.33;2.05;;;;;;;14.43;81.63;99815.78;5019235;28;20057;-50
2021/07/07 02:52:26;;;;;;;3.67;2.00;;;;;;;14.40;81.62;99813.78;5018714;28;20143;-43
2021/07/07 02:54:53;;;;;;;2.50;1.98;;;;;;;14.38;81.68;99816.16;5019196;28;20061;-42
2021/07/07 02:57:20;;;;;;;3.45;2.20;;;;;;;14.39;81.49;99822.53;5018227;28;20050;-43
2021/07/07 02:59:47;;;;;;;3.95;2.30;;;;;;;14.34;81.61;99820.94;5002005;28;20046;-47
2021/07/07 03:02:13;;;;;;;4.53;2.13;;;;;;;14.35;81.75;99822.50;5019986;28;20059;-45
2021/07/07 03:04:40;;;;;;;2.70;2.03;;;;;;;14.32;81.88;99831.66;5018304;28;20567;-46
2021/07/07 03:07:07;;;;;;;1.90;1.80;;;;;;;14.28;81.89;99827.22;5017177;28;20057;-44
2021/07/07 03:09:34;;;;;;;2.53;2.00;;;;;;;14.26;81.84;99829.63;5033968;28;20051;-47
2021/07/07 03:12:01;;;;;;;2.15;2.00;;;;;;;14.24;82.05;99832.81;5040570;28;20113;-45
2021/07/07 03:14:28;;;;;;;2.42;2.22;;;;;;;14.22;81.94;99840.72;5039219;28;20049;-48
2021/07/07 03:16:57;;;;;;;4.25;2.00;;;;;;;14.17;82.19;99845.88;5042312;28;20052;-51
2021/07/07 03:19:24;;;;;;;2.38;2.17;;;;;;;14.14;82.45;99849.47;5039881;28;20473;-45
2021/07/07 03:21:50;;;;;;;1.80;1.70;;;;;;;14.14;82.46;99858.59;5020218;28;20191;-44
2021/07/07 03:24:17;;;;;;;3.25;1.77;;;;;;;14.13;82.37;99853.44;5040415;28;20857;-43
2021/07/07 03:26:44;;;;;;;3.30;1.85;;;;;;;14.09;82.34;99853.41;5039809;28;20493;-50
2021/07/07 03:29:10;;;;;;;2.75;1.77;;;;;;;14.11;82.40;99858.59;5041411;28;20048;-49
2021/07/07 03:31:38;;;;;;;2.35;1.92;;;;;;;14.12;82.23;99857.38;5038530;28;20057;-47
2021/07/07 03:34:05;;;;;;;2.38;2.17;;;;;;;14.13;81.97;99859.78;5045196;28;20086;-46
2021/07/07 03:36:32;;;;;;;3.58;2.20;;;;;;;14.09;82.06;99874.88;5039128;28;20111;-45
2021/07/07 03:38:59;;;;;;;2.25;1.65;;;;;;;14.10;81.94;99870.91;5039218;28;20424;-43
2021/07/07 03:41:25;;;;;;;4.43;1.85;;;;;;;14.15;82.01;99878.88;5045235;28;20199;-45
2021/07/07 03:43:52;;;;;;;2.33;2.13;;;;;;;14.17;82.09;99882.06;5038892;28;20844;-54
2021/07/07 03:46:19;;;;;;;2.45;2.03;;;;;;;14.19;82.22;99885.28;5040451;28;20270;-44
2021/07/07 03:48:46;;;;;;;4.55;1.67;;;;;;;14.23;82.05;99891.66;5041107;28;20071;-50
2021/07/07 03:51:12;;;;;;;2.08;1.83;;;;;;;14.24;82.19;99887.69;5044633;28;20057;-44
2021/07/07 03:53:39;;;;;;;4.90;2.38;;;;;;;14.27;82.09;99889.69;5037794;28;20103;-46
2021/07/07 03:56:06;;;;;;;3.88;2.17;;;;;;;14.30;82.13;99903.63;5041286;28;20482;-45
2021/07/07 03:58:33;;;;;;;1.88;1.70;;;;;;;14.30;82.22;99902.81;5039311;28;20053;-45
2021/07/07 04:00:59;;;;;;;2.40;1.42;;;;;;;14.33;82.03;99904.84;5040893;28;20136;-47
2021/07/07 04:03:26;;;;;;;2.00;1.80;;;;;;;14.34;82.33;99903.66;5039256;28;20122;-42
2021/07/07 04:05:53;;;;;;;3.45;1.77;;;;;;;14.35;82.14;99922.00;5021536;28;20053;-45
2021/07/07 04:08:22;;;;;;;4.60;2.10;;;;;;;14.34;82.15;99910.03;5039848;28;20408;-48
2021/07/07 04:10:49;;;;;;;2.10;1.85;;;;;;;14.38;82.01;99921.19;5044360;28;20056;-50
2021/07/07 04:13:15;;;;;;;2.45;1.90;;;;;;;14.39;82.01;99929.16;5037554;28;20106;-44
2021/07/07 04:15:42;;;;;;;3.38;1.95;;;;;;;14.38;82.10;99927.56;5039040;28;20048;-47
2021/07/07 04:18:10;;;;;;;3.03;2.00;;;;;;;14.40;81.87;99936.31;5040896;28;20052;-43
2021/07/07 04:20:37;;;;;;;4.32;2.40;;;;;;;14.38;82.07;99937.88;5041334;28;20066;-53
2021/07/07 04:23:03;;;;;;;3.75;2.08;;;;;;;14.36;82.13;99941.06;5041795;28;20037;-48
2021/07/07 04:25:30;;;;;;;2.25;2.05;;;;;;;14.36;82.25;99931.91;5022284;28;20060;-49
2021/07/07 04:27:57;;;;;;;2.17;1.90;;;;;;;14.37;82.27;99937.13;5041161;28;20063;-52
2021/07/07 04:30:24;;;;;;;4.55;2.28;;;;;;;14.40;82.25;99935.53;5020204;28;20061;-51
2021/07/07 04:32:50;;;;;;;2.83;2.58;;;;;;;14.38;82.17;99933.13;5041316;28;20965;-51
2021/07/07 04:35:18;;;;;;;2.78;2.17;;;;;;;14.40;82.24;99941.09;5038329;28;20053;-50
2021/07/07 04:37:47;;;;;;;3.50;2.15;;;;;;;14.39;82.45;99953.41;5043185;28;20091;-43
2021/07/07 04:40:15;;;;;;;3.97;2.55;;;;;;;14.39;82.46;99951.44;5035616;28;20071;-44
2021/07/07 04:42:42;;;;;;;3.85;2.38;;;;;;;14.42;82.38;99950.66;5040345;28;20087;-53
2021/07/07 04:45:09;;;;;;;3.60;2.55;;;;;;;14.44;82.10;99948.28;5038682;28;20103;-46
2021/07/07 04:47:37;;;;;;;3.95;2.33;;;;;;;14.48;82.31;99953.88;5041045;28;20044;-43
2021/07/07 04:50:12;;;;;;;2.95;2.67;;;;;;;14.47;82.33;99957.84;5037763;28;20053;-44
2021/07/07 04:52:40;;;;;;;3.22;2.35;;;;;;;14.50;82.07;99954.28;5038461;28;20067;-45
2021/07/07 04:55:09;;;;;;;4.45;2.53;;;;;;;14.50;82.23;99962.63;5038284;28;20056;-53
2021/07/07 04:57:42;;;;;;;2.25;2.05;;;;;;;14.49;82.16;99961.81;5036921;28;20048;-50
2021/07/07 05:00:12;;;;;;;2.63;2.33;;;;;;;14.52;82.21;99965.81;5036721;28;20044;-46
2021/07/07 05:02:42;;;;;;;3.38;2.45;;;;;;;14.55;82.03;99959.47;5036330;28;20490;-44
2021/07/07 05:05:11;;;;;;;3.85;2.30;;;;;;;14.53;82.13;99961.84;5040423;28;20123;-50
2021/07/07 05:07:38;;;;;;;9.00;3.47;;;;;;;14.55;82.02;99965.03;5023381;28;20766;-47
2021/07/07 05:10:06;;;;;;;2.17;1.98;;;;;;;14.54;81.95;99958.66;5037699;28;20143;-50
2021/07/07 05:12:33;;;;;;;2.53;2.33;;;;;;;14.53;81.95;99961.84;5038141;28;20103;-45
2021/07/07 05:15:01;;;;;;;2.85;2.42;;;;;;;14.52;81.84;99968.59;5038358;28;20067;-44
2021/07/07 05:17:28;;;;;;;2.60;2.40;;;;;;;14.45;82.19;99966.59;5041787;28;20143;-45
2021/07/07 05:19:57;;;;;;;4.25;2.85;;;;;;;14.42;82.19;99961.00;5044619;28;20145;-45
2021/07/07 05:22:24;;;;;;;4.03;2.42;;;;;;;14.43;81.86;99970.94;5041565;28;20350;-53
2021/07/07 05:24:51;;;;;;;4.60;2.58;;;;;;;14.42;82.24;99969.34;5039309;28;20152;-47
2021/07/07 05:27:18;;;;;;;3.00;2.33;;;;;;;14.44;82.40;99975.31;5044627;28;20394;-49
2021/07/07 05:29:47;;;;;;;6.22;2.10;;;;;;;14.53;82.57;99992.50;5045909;28;20067;-44
2021/07/07 05:32:34;;;;;;;2.70;2.15;;;;;;;14.60;82.54;99990.53;5028271;28;20053;-48
2021/07/07 05:35:01;;;;;;;1.70;1.60;;;;;;;14.67;82.50;100003.69;5043266;28;20401;-46
2021/07/07 05:37:28;;;;;;;2.97;2.08;;;;;;;14.72;82.54;100008.13;5037813;28;20059;-46
2021/07/07 05:39:55;;;;;;;3.72;1.80;;;;;;;14.75;82.39;100002.53;5043095;28;20050;-45
2021/07/07 05:42:22;;;;;;;5.13;2.75;;;;;;;14.75;82.24;100008.09;5040020;28;20061;-47
2021/07/07 05:44:53;;;;;;;3.55;1.52;;;;;;;14.74;82.18;100005.72;5044368;28;20506;-50
2021/07/07 05:47:24;;;;;;;2.05;1.85;;;;;;;14.73;82.39;100015.25;5043981;28;20071;-46
2021/07/07 05:49:56;;;;;;;9.00;3.05;;;;;;;14.72;82.19;100006.09;5041534;28;20796;-45
2021/07/07 05:52:25;;;;;;;;;;;;;;;14.73;82.42;100010.50;5043265;28;20080;-44
2021/07/07 05:54:52;;;;;;;4.13;2.20;;;;;;;14.78;82.34;100015.69;5027455;28;19924;-46
2021/07/07 05:57:24;;;;;;;9.93;2.80;;;;;;;14.82;82.42;100019.31;5041149;28;20592;-50
2021/07/07 05:59:52;;;;;;;4.85;3.10;;;;;;;14.87;82.34;100038.44;5046248;28;20063;-50
2021/07/07 06:02:18;;;;;;;3.90;2.78;;;;;;;14.85;82.45;100045.59;5028334;28;20102;-47
2021/07/07 06:04:45;;;;;;;3.75;2.67;;;;;;;14.83;82.54;100054.34;5043153;28;20066;-45
2021/07/07 06:07:12;;;;;;;6.15;3.10;;;;;;;14.84;82.61;100050.38;5023461;28;20136;-47
2021/07/07 06:09:39;;;;;;;8.15;3.65;;;;;;;14.85;82.41;100057.53;5038380;28;20090;-46
2021/07/07 06:12:06;;;;;;;5.78;3.47;;;;;;;14.84;82.49;100058.72;5043096;28;20045;-46
2021/07/07 06:14:32;;;;;;;5.95;3.63;;;;;;;14.85;82.47;100063.09;5042791;28;20053;-45
2021/07/07 06:16:59;;;;;;;4.43;3.22;;;;;;;14.88;82.43;100055.97;5027719;28;20053;-52
2021/07/07 06:19:26;;;;;;;7.82;4.00;;;;;;;14.89;82.29;100063.94;5041775;28;20091;-54
2021/07/07 06:21:53;;;;;;;6.95;3.67;;;;;;;14.91;82.27;100064.31;5022672;28;20057;-54
2021/07/07 06:24:20;;;;;;;5.15;3.47;;;;;;;14.96;82.20;100066.75;5040312;28;20052;-48
2021/07/07 06:26:46;;;;;;;7.15;4.95;;;;;;;15.00;82.38;100075.94;5023200;28;20044;-50
2021/07/07 06:29:15;;;;;;;10.93;5.43;;;;;;;15.08;82.16;100066.41;5039155;28;20072;-44
2021/07/07 06:31:45;;;;;;;10.27;5.82;;;;;;;15.13;82.09;100068.00;5042461;28;20068;-48
2021/07/07 06:34:12;;;;;;;6.53;4.82;;;;;;;15.19;82.09;100078.41;5040601;28;20087;-45
2021/07/07 06:36:39;;;;;;;9.88;5.38;;;;;;;15.22;82.05;100077.59;5039312;28;20466;-54
2021/07/07 06:39:06;;;;;;;9.43;5.40;;;;;;;15.25;81.98;100074.03;5043403;28;20393;-53
2021/07/07 06:41:33;;;;;;;6.95;5.50;;;;;;;15.30;82.11;100083.22;5041959;28;20053;-52
2021/07/07 06:44:00;;;;;;;6.35;5.38;;;;;;;15.28;81.76;100091.97;5038853;28;20041;-48
2021/07/07 06:46:26;;;;;;;12.50;5.55;;;;;;;15.34;82.04;100095.19;5040560;28;20134;-54
2021/07/07 06:48:53;;;;;;;9.40;5.38;;;;;;;15.34;81.77;100095.19;5041367;28;20084;-48
2021/07/07 06:51:20;;;;;;;9.35;6.25;;;;;;;15.39;81.75;100097.59;5043628;28;20502;-47
2021/07/07 06:53:47;;;;;;;7.97;5.32;;;;;;;15.39;81.63;100103.97;5019460;28;20579;-52
2021/07/07 06:56:13;;;;;;;9.13;5.57;;;;;;;15.39;81.59;100109.53;5042476;28;20468;-49
2021/07/07 06:58:40;;;;;;;7.10;5.30;;;;;;;15.44;81.64;100116.72;5040751;28;20876;-48
2021/07/07 07:01:07;;;;;;;13.23;7.45;;;;;;;15.49;81.55;100119.97;5040070;28;20053;-45
2021/07/07 07:03:34;;;;;;;8.73;6.25;;;;;;;15.53;81.50;100114.41;5040652;28;20164;-48
2021/07/07 07:06:01;;;;;;;9.65;6.30;;;;;;;15.52;81.29;100129.53;5039040;28;20060;-52
2021/07/07 07:08:27;;;;;;;7.30;6.35;;;;;;;15.51;81.33;100127.97;5043740;28;20131;-46
2021/07/07 07:10:54;;;;;;;8.02;5.88;;;;;;;15.53;81.02;100125.56;5039275;28;20138;-49
2021/07/07 07:13:21;;;;;;;6.63;5.68;;;;;;;15.53;80.94;100136.72;5040638;28;20064;-55
2021/07/07 07:15:48;;;;;;;8.45;5.82;;;;;;;15.51;80.78;100141.91;5038952;28;20049;-46
2021/07/07 07:18:15;;;;;;;9.20;6.03;;;;;;;15.48;80.76;100142.69;5038620;28;20072;-52
2021/07/07 07:20:42;;;;;;;9.68;5.80;;;;;;;15.50;80.89;100145.88;5045498;28;20594;-48
2021/07/07 07:23:09;;;;;;;11.75;6.45;;;;;;;15.54;80.86;100155.09;5039076;28;20068;-45
2021/07/07 07:25:36;;;;;;;12.43;6.13;;;;;;;15.55;81.02;100151.09;5044548;28;20049;-52
2021/07/07 07:28:04;;;;;;;7.55;5.57;;;;;;;15.57;80.87;100143.09;5042462;28;20060;-46
2021/07/07 07:30:34;;;;;;;7.15;5.68;;;;;;;15.65;80.77;100147.53;5026423;28;20052;-46
2021/07/07 07:33:01;;;;;;;10.15;6.00;;;;;;;15.73;80.74;100146.34;5041471;28;20060;-50
2021/07/07 07:35:28;;;;;;;7.57;5.68;;;;;;;15.77;80.70;100156.34;5046138;28;20060;-46
2021/07/07 07:38:05;;;;;;;6.47;5.63;;;;;;;15.83;80.80;100162.34;5041188;28;20061;-56
2021/07/07 07:40:37;;;;;;;7.38;5.50;;;;;;;15.86;80.59;100178.28;5046170;28;20052;-47
2021/07/07 07:43:07;;;;;;;10.60;6.07;;;;;;;15.84;80.25;100187.06;5048038;28;20049;-54
2021/07/07 07:45:34;;;;;;;12.60;6.57;;;;;;;15.86;80.45;100178.28;5044836;28;20156;-46
2021/07/07 07:48:02;;;;;;;10.63;6.50;;;;;;;15.85;80.44;100182.28;5041448;28;20819;-50
2021/07/07 07:50:29;;;;;;;9.98;7.68;;;;;;;15.83;80.64;100193.06;5027617;28;20053;-47
2021/07/07 07:52:56;;;;;;;11.25;7.35;;;;;;;15.79;80.83;100200.59;5041136;28;20425;-47
2021/07/07 07:55:22;;;;;;;11.02;7.82;;;;;;;15.74;80.98;100209.38;5047742;28;20099;-46
2021/07/07 07:57:50;;;;;;;10.93;6.82;;;;;;;15.72;81.01;100211.75;5044607;28;20476;-46
2021/07/07 08:00:20;;;;;;;11.63;6.85;;;;;;;15.74;81.10;100214.94;5044676;28;20153;-51
2021/07/07 08:02:48;;;;;;;14.35;8.85;;;;;;;15.72;80.94;100217.34;5054429;28;20057;-44
2021/07/07 08:05:17;;;;;;;11.07;8.23;;;;;;;15.71;80.85;100221.31;5033757;28;20267;-56
2021/07/07 08:07:44;;;;;;;13.57;8.00;;;;;;;15.70;80.91;100230.91;5028298;28;20052;-53
2021/07/07 08:10:22;;;;;;;14.85;9.32;;;;;;;15.74;81.02;100242.84;5037595;28;20056;-49
2021/07/07 08:12:51;;;;;;;12.85;9.15;;;;;;;15.79;81.02;100245.25;5042685;28;20052;-56
2021/07/07 08:15:20;;;;;;;14.80;9.82;;;;;;;15.80;80.84;100252.47;5043405;28;20045;-46
2021/07/07 08:17:47;;;;;;;12.98;10.02;;;;;;;15.76;80.82;100258.03;5045360;28;20110;-54
2021/07/07 08:20:15;;;;;;;14.93;9.90;;;;;;;15.77;80.76;100261.63;5043319;28;20057;-47
2021/07/07 08:22:42;;;;;;;15.55;9.48;;;;;;;15.82;80.70;100272.41;5026640;28;20135;-47
2021/07/07 08:25:11;;;;;;;14.48;10.60;;;;;;;15.87;80.74;100272.03;5044808;28;20418;-45
2021/07/07 08:27:39;;;;;;;18.98;9.73;;;;;;;15.94;80.61;100262.91;5046141;28;20045;-46
2021/07/07 08:30:08;;;;;;;15.30;9.30;;;;;;;15.98;80.63;100263.69;5045938;28;20063;-45
2021/07/07 08:32:35;;;;;;;10.77;8.60;;;;;;;16.09;80.69;100270.91;5040133;28;20545;-50
2021/07/07 08:35:03;;;;;;;12.38;7.20;;;;;;;16.25;80.59;100270.56;5040010;28;20051;-46
2021/07/07 08:37:30;;;;;;;13.38;8.05;;;;;;;16.42;80.32;100278.19;5041580;28;20090;-46
2021/07/07 08:39:57;;;;;;;7.38;5.95;;;;;;;16.53;80.17;100279.03;5037129;28;20053;-50
2021/07/07 08:42:24;;;;;;;11.93;7.63;;;;;;;16.73;80.03;100287.88;5040747;28;20786;-53
2021/07/07 08:44:51;;;;;;;13.55;6.43;;;;;;;16.95;79.98;100289.47;5043384;28;20820;-50
2021/07/07 08:47:18;;;;;;;11.00;6.43;;;;;;;17.26;79.69;100283.03;5041734;28;20463;-49
2021/07/07 08:49:44;;;;;;;9.15;6.53;;;;;;;17.60;78.95;100287.03;5024163;28;20056;-48
2021/07/07 08:52:11;;;;;;;7.80;6.57;;;;;;;17.96;78.63;100282.09;5041133;28;20047;-49
2021/07/07 08:54:45;;;;;;;16.45;7.60;;;;;;;18.29;77.88;100289.19;5043154;28;20053;-49
2021/07/07 08:57:20;;;;;;;7.90;5.45;;;;;;;18.49;76.70;100295.88;5023631;28;20080;-48
2021/07/07 08:59:49;;;;;;;6.60;5.50;;;;;;;18.44;76.05;100301.91;5041217;28;20053;-49
2021/07/07 09:02:17;;;;;;;7.45;5.80;;;;;;;18.40;75.54;100301.09;5042673;28;21560;-51
2021/07/07 09:04:46;;;;;;;9.05;5.63;;;;;;;18.38;75.11;100302.72;5044331;28;20150;-55
2021/07/07 09:07:21;;;;;;;9.40;6.07;;;;;;;18.37;75.06;100301.94;5039058;28;20505;-46
2021/07/07 09:09:50;;;;;;;8.68;5.43;;;;;;;18.31;74.43;100302.75;5039298;28;20098;-49
2021/07/07 09:12:26;;;;;;;9.60;5.25;;;;;;;18.50;74.54;100305.09;5042817;28;20505;-51
2021/07/07 09:15:20;;;;;;;5.78;4.45;;;;;;;19.14;73.46;100305.44;5043610;28;20056;-50
2021/07/07 09:17:50;;;;;;;5.47;4.55;;;;;;;19.89;73.14;100312.75;5051149;28;20516;-47
2021/07/07 09:20:37;;;;;;;5.43;4.30;;;;;;;20.47;70.11;100327.69;5042290;28;20110;-45
2021/07/07 09:23:22;;;;;;;5.80;4.57;;;;;;;20.81;69.53;100317.16;5042026;28;20476;-47
2021/07/07 09:25:52;;;;;;;8.43;5.07;;;;;;;20.77;69.38;100327.69;5053547;28;21110;-49
2021/07/07 09:28:20;;;;;;;7.07;4.38;;;;;;;20.68;68.26;100330.22;5043492;28;20132;-51
2021/07/07 09:30:47;;;;;;;6.93;4.13;;;;;;;20.52;67.68;100330.03;5041003;28;20084;-49
2021/07/07 09:33:14;;;;;;;7.85;4.45;;;;;;;20.34;67.96;100332.28;5039688;28;20165;-47
2021/07/07 09:35:42;;;;;;;5.97;4.13;;;;;;;20.08;67.84;100335.81;5040441;28;20057;-47
2021/07/07 09:38:09;;;;;;;4.82;3.70;;;;;;;19.85;67.38;100333.66;5042911;28;20135;-46
2021/07/07 09:40:42;;;;;;;6.13;4.78;;;;;;;19.81;67.08;100338.50;5039729;28;20156;-50
2021/07/07 09:43:13;;;;;;;7.30;4.03;;;;;;;19.67;67.02;100333.06;5028700;28;20044;-45
2021/07/07 09:46:06;;;;;;;6.28;4.13;;;;;;;19.37;66.65;100331.72;5040913;28;20095;-46
2021/07/07 09:48:37;;;;;;;5.53;3.70;;;;;;;19.23;66.92;100333.81;5039287;28;20060;-49
2021/07/07 09:51:05;;;;;;;7.28;3.95;;;;;;;19.14;67.48;100327.91;5023632;28;20883;-48
2021/07/07 09:53:32;;;;;;;6.85;4.45;;;;;;;19.01;67.76;100340.84;5040942;28;20084;-56
2021/07/07 09:56:01;;;;;;;6.70;5.13;;;;;;;18.89;68.40;100333.69;5039211;28;20045;-55
2021/07/07 09:58:28;;;;;;;6.80;4.63;;;;;;;18.83;68.32;100332.53;5036826;28;20053;-47
2021/07/07 10:00:55;;;;;;;5.22;4.38;;;;;;;18.80;68.18;100344.56;5041297;28;20822;-51
2021/07/07 10:03:23;;;;;;;6.38;4.00;;;;;;;18.89;68.54;100349.72;5040418;28;20065;-48
2021/07/07 10:05:50;;;;;;;5.15;3.55;;;;;;;18.95;67.94;100353.69;5033968;28;20154;-46
2021/07/07 10:08:19;;;;;;;5.40;4.55;;;;;;;19.07;67.94;100359.59;5037019;28;20549;-47
2021/07/07 10:10:47;;;;;;;5.25;4.47;;;;;;;19.15;67.96;100360.34;5042132;28;20053;-49
2021/07/07 10:13:15;;;;;;;15.18;4.97;;;;;;;19.26;68.29;100369.50;5036304;28;20045;-50
2021/07/07 10:15:46;;;;;;;5.28;3.95;;;;;;;19.43;67.43;100374.19;5036501;28;20057;-54
2021/07/07 10:18:13;;;;;;;5.43;3.88;;;;;;;19.52;66.61;100384.94;5038346;28;20115;-49
2021/07/07 10:20:40;;;;;;;6.47;3.75;;;;;;;19.52;66.37;100376.50;5037295;28;20726;-48
2021/07/07 10:23:10;;;;;;;3.55;2.95;;;;;;;19.51;66.02;100386.16;5039330;28;20167;-47
2021/07/07 10:25:38;;;;;;;6.32;3.55;;;;;;;19.51;66.23;100391.78;5035302;28;20131;-50
2021/07/07 10:28:14;;;;;;;6.00;3.50;;;;;;;19.46;65.47;100390.19;5039942;28;20059;-52
2021/07/07 10:30:51;;;;;;;4.50;3.20;;;;;;;19.39;66.12;100391.06;5035833;28;20067;-50
2021/07/07 10:33:20;;;;;;;6.35;3.47;;;;;;;19.35;66.03;100395.88;5037239;28;20303;-54
2021/07/07 10:35:48;;;;;;;4.05;3.05;;;;;;;19.39;66.35;100398.69;5000300;28;20048;-51
2021/07/07 10:38:15;;;;;;;4.88;3.97;;;;;;;19.45;66.24;100399.84;5036764;28;20060;-53
2021/07/07 10:40:51;;;;;;;6.28;4.53;;;;;;;19.47;66.51;100408.66;5038767;28;20052;-55
2021/07/07 10:43:45;;;;;;;8.10;4.60;;;;;;;19.45;66.38;100422.31;5013887;28;20936;-50
2021/07/07 10:46:13;;;;;;;7.75;4.30;;;;;;;19.48;66.23;100420.69;5035534;28;20048;-46
2021/07/07 10:48:40;;;;;;;4.57;4.13;;;;;;;19.48;66.49;100423.50;5035945;28;20055;-48
2021/07/07 10:51:24;;;;;;;7.78;5.22;;;;;;;19.56;66.56;100422.22;5049043;28;20056;-51
2021/07/07 10:53:52;;;;;;;7.80;4.30;;;;;;;19.72;66.24;100436.53;5041995;28;20052;-48
2021/07/07 10:56:44;;;;;;;7.53;4.40;;;;;;;19.79;65.11;100431.66;5034607;28;20053;-48
2021/07/07 10:59:36;;;;;;;6.90;4.03;;;;;;;19.87;65.29;100438.00;5038506;28;20052;-53
2021/07/07 11:02:09;;;;;;;6.53;4.07;;;;;;;19.95;65.74;100439.53;5020259;28;20084;-50
2021/07/07 11:04:37;;;;;;;4.50;3.70;;;;;;;20.18;65.60;100447.31;5034882;28;20505;-46
2021/07/07 11:07:26;;;;;;;9.15;3.58;;;;;;;20.31;65.22;100462.47;5036816;28;20141;-47
2021/07/07 11:09:55;;;;;;;5.07;3.60;;;;;;;20.36;65.10;100456.41;5036266;28;20854;-50
2021/07/07 11:12:41;;;;;;;5.05;2.97;;;;;;;20.41;63.94;100450.31;5043807;28;20055;-46
2021/07/07 11:15:08;;;;;;;3.45;3.10;;;;;;;20.44;64.75;100460.72;5042798;28;20060;-47
2021/07/07 11:17:37;;;;;;;4.40;3.83;;;;;;;20.55;64.39;100458.56;5044042;28;20053;-54
2021/07/07 11:20:05;;;;;;;5.25;3.60;;;;;;;20.58;64.41;100463.38;5024393;28;20055;-45
2021/07/07 11:22:33;;;;;;;4.60;3.67;;;;;;;20.54;64.24;100468.25;5043438;28;20044;-45
2021/07/07 11:25:04;;;;;;;5.90;3.55;;;;;;;20.59;63.68;100467.78;5042740;28;20054;-50
2021/07/07 11:27:35;;;;;;;5.00;3.30;;;;;;;20.67;63.01;100469.31;5043447;28;20052;-53
2021/07/07 11:30:08;;;;;;;5.68;3.28;;;;;;;20.74;62.53;100476.84;5037962;28;20045;-47
2021/07/07 11:32:41;;;;;;;6.88;3.13;;;;;;;21.01;62.25;100472.06;5040018;28;20076;-48
2021/07/07 11:35:11;;;;;;;4.18;3.28;;;;;;;21.22;61.38;100475.44;5040223;28;20045;-48
2021/07/07 11:37:39;;;;;;;4.40;2.83;;;;;;;21.24;61.09;100483.44;5041152;28;21267;-55